sensor_id;sensor_type;location;lat;lon;timestamp;P1;durP1;ratioP1;P2;durP2;ratioP2
47764;SDS011;33529;49.242;8.670;2022-10-22T00:02:24;2.60;;;1.52;;
47764;SDS011;33529;49.242;8.670;2022-10-22T00:04:53;2.58;;;1.02;;
47764;SDS011;33529;49.242;8.670;2022-10-22T00:07:22;5.20;;;1.00;;
47764;SDS011;33529;49.242;8.670;2022-10-22T00:09:49;1.70;;;0.73;;
47764;SDS011;33529;49.242;8.670;2022-10-22T00:12:16;1.65;;;0.65;;
47764;SDS011;33529;49.242;8.670;2022-10-22T00:14:43;1.67;;;0.70;;
47764;SDS011;33529;49.242;8.670;2022-10-22T00:17:10;1.10;;;0.75;;
47764;SDS011;33529;49.242;8.670;2022-10-22T00:19:37;2.03;;;0.50;;
47764;SDS011;33529;49.242;8.670;2022-10-22T00:22:05;0.95;;;0.70;;
47764;SDS011;33529;49.242;8.670;2022-10-22T00:24:33;2.03;;;1.05;;
47764;SDS011;33529;49.242;8.670;2022-10-22T00:27:01;1.73;;;0.88;;
47764;SDS011;33529;49.242;8.670;2022-10-22T00:29:29;0.63;;;0.43;;
47764;SDS011;33529;49.242;8.670;2022-10-22T00:31:57;1.45;;;0.68;;
47764;SDS011;33529;49.242;8.670;2022-10-22T00:34:24;1.30;;;0.60;;
47764;SDS011;33529;49.242;8.670;2022-10-22T00:36:51;1.10;;;0.65;;
47764;SDS011;33529;49.242;8.670;2022-10-22T00:39:20;0.93;;;0.50;;
47764;SDS011;33529;49.242;8.670;2022-10-22T00:41:49;1.10;;;0.80;;
47764;SDS011;33529;49.242;8.670;2022-10-22T00:47:22;1.40;;;0.68;;
47764;SDS011;33529;49.242;8.670;2022-10-22T00:49:50;1.60;;;0.60;;
47764;SDS011;33529;49.242;8.670;2022-10-22T00:52:19;1.30;;;0.68;;
47764;SDS011;33529;49.242;8.670;2022-10-22T00:54:46;1.85;;;0.82;;
47764;SDS011;33529;49.242;8.670;2022-10-22T00:57:14;1.55;;;0.75;;
47764;SDS011;33529;49.242;8.670;2022-10-22T00:59:41;1.48;;;0.90;;
47764;SDS011;33529;49.242;8.670;2022-10-22T01:02:08;1.27;;;0.63;;
47764;SDS011;33529;49.242;8.670;2022-10-22T01:04:35;0.57;;;0.32;;
47764;SDS011;33529;49.242;8.670;2022-10-22T01:07:02;1.95;;;0.55;;
47764;SDS011;33529;49.242;8.670;2022-10-22T01:14:48;0.93;;;0.50;;
47764;SDS011;33529;49.242;8.670;2022-10-22T01:20:38;1.23;;;0.70;;
47764;SDS011;33529;49.242;8.670;2022-10-22T01:26:05;0.90;;;0.47;;
47764;SDS011;33529;49.242;8.670;2022-10-22T01:31:34;1.15;;;0.60;;
47764;SDS011;33529;49.242;8.670;2022-10-22T01:34:05;1.27;;;0.60;;
47764;SDS011;33529;49.242;8.670;2022-10-22T01:36:34;0.80;;;0.47;;
47764;SDS011;33529;49.242;8.670;2022-10-22T01:39:03;0.75;;;0.40;;
47764;SDS011;33529;49.242;8.670;2022-10-22T01:41:32;1.98;;;0.40;;
47764;SDS011;33529;49.242;8.670;2022-10-22T01:50:40;1.35;;;0.35;;
47764;SDS011;33529;49.242;8.670;2022-10-22T01:53:35;1.35;;;0.57;;
47764;SDS011;33529;49.242;8.670;2022-10-22T01:56:26;0.95;;;0.50;;
47764;SDS011;33529;49.242;8.670;2022-10-22T02:02:03;0.63;;;0.45;;
47764;SDS011;33529;49.242;8.670;2022-10-22T02:08:13;0.55;;;0.30;;
47764;SDS011;33529;49.242;8.670;2022-10-22T02:10:45;0.70;;;0.30;;
47764;SDS011;33529;49.242;8.670;2022-10-22T02:16:03;1.20;;;0.35;;
47764;SDS011;33529;49.242;8.670;2022-10-22T02:18:33;0.22;;;0.22;;
47764;SDS011;33529;49.242;8.670;2022-10-22T02:23:33;0.50;;;0.32;;
47764;SDS011;33529;49.242;8.670;2022-10-22T02:26:06;0.47;;;0.20;;
47764;SDS011;33529;49.242;8.670;2022-10-22T02:28:51;0.75;;;0.30;;
47764;SDS011;33529;49.242;8.670;2022-10-22T02:31:31;0.20;;;0.20;;
47764;SDS011;33529;49.242;8.670;2022-10-22T02:34:04;0.40;;;0.30;;
47764;SDS011;33529;49.242;8.670;2022-10-22T02:36:36;0.40;;;0.30;;
47764;SDS011;33529;49.242;8.670;2022-10-22T02:39:04;0.50;;;0.40;;
47764;SDS011;33529;49.242;8.670;2022-10-22T02:41:33;0.55;;;0.30;;
47764;SDS011;33529;49.242;8.670;2022-10-22T02:44:00;0.10;;;0.10;;
47764;SDS011;33529;49.242;8.670;2022-10-22T02:46:28;0.50;;;0.50;;
47764;SDS011;33529;49.242;8.670;2022-10-22T02:48:55;0.35;;;0.20;;
47764;SDS011;33529;49.242;8.670;2022-10-22T02:51:21;0.93;;;0.40;;
47764;SDS011;33529;49.242;8.670;2022-10-22T02:53:48;0.32;;;0.30;;
47764;SDS011;33529;49.242;8.670;2022-10-22T02:56:15;0.20;;;0.20;;
47764;SDS011;33529;49.242;8.670;2022-10-22T02:58:41;0.57;;;0.32;;
47764;SDS011;33529;49.242;8.670;2022-10-22T03:01:08;0.47;;;0.30;;
47764;SDS011;33529;49.242;8.670;2022-10-22T03:03:41;0.25;;;0.20;;
47764;SDS011;33529;49.242;8.670;2022-10-22T03:06:07;0.73;;;0.38;;
47764;SDS011;33529;49.242;8.670;2022-10-22T03:08:34;0.25;;;0.22;;
47764;SDS011;33529;49.242;8.670;2022-10-22T03:11:01;0.32;;;0.30;;
47764;SDS011;33529;49.242;8.670;2022-10-22T03:13:28;0.52;;;0.30;;
47764;SDS011;33529;49.242;8.670;2022-10-22T03:15:54;0.20;;;0.20;;
47764;SDS011;33529;49.242;8.670;2022-10-22T03:18:21;0.40;;;0.38;;
47764;SDS011;33529;49.242;8.670;2022-10-22T03:20:48;0.55;;;0.30;;
47764;SDS011;33529;49.242;8.670;2022-10-22T03:23:15;0.52;;;0.30;;
47764;SDS011;33529;49.242;8.670;2022-10-22T03:25:45;0.77;;;0.43;;
47764;SDS011;33529;49.242;8.670;2022-10-22T03:28:14;0.75;;;0.32;;
47764;SDS011;33529;49.242;8.670;2022-10-22T03:30:43;0.20;;;0.20;;
47764;SDS011;33529;49.242;8.670;2022-10-22T03:33:10;0.25;;;0.25;;
47764;SDS011;33529;49.242;8.670;2022-10-22T03:35:39;0.30;;;0.30;;
47764;SDS011;33529;49.242;8.670;2022-10-22T03:38:09;0.20;;;0.20;;
47764;SDS011;33529;49.242;8.670;2022-10-22T03:40:36;0.77;;;0.40;;
47764;SDS011;33529;49.242;8.670;2022-10-22T03:43:03;0.65;;;0.32;;
47764;SDS011;33529;49.242;8.670;2022-10-22T03:45:30;0.30;;;0.25;;
47764;SDS011;33529;49.242;8.670;2022-10-22T03:47:57;1.02;;;0.30;;
47764;SDS011;33529;49.242;8.670;2022-10-22T03:50:24;0.20;;;0.20;;
47764;SDS011;33529;49.242;8.670;2022-10-22T03:52:51;0.80;;;0.52;;
47764;SDS011;33529;49.242;8.670;2022-10-22T03:55:18;0.52;;;0.30;;
47764;SDS011;33529;49.242;8.670;2022-10-22T03:57:45;0.55;;;0.25;;
47764;SDS011;33529;49.242;8.670;2022-10-22T04:00:12;0.20;;;0.20;;
47764;SDS011;33529;49.242;8.670;2022-10-22T04:02:39;0.38;;;0.25;;
47764;SDS011;33529;49.242;8.670;2022-10-22T04:05:06;0.17;;;0.17;;
47764;SDS011;33529;49.242;8.670;2022-10-22T04:07:33;0.45;;;0.30;;
47764;SDS011;33529;49.242;8.670;2022-10-22T04:10:00;0.20;;;0.20;;
47764;SDS011;33529;49.242;8.670;2022-10-22T04:12:27;0.40;;;0.20;;
47764;SDS011;33529;49.242;8.670;2022-10-22T04:14:54;0.55;;;0.30;;
47764;SDS011;33529;49.242;8.670;2022-10-22T04:17:20;1.08;;;0.35;;
47764;SDS011;33529;49.242;8.670;2022-10-22T04:19:47;0.20;;;0.20;;
47764;SDS011;33529;49.242;8.670;2022-10-22T04:22:14;0.20;;;0.20;;
47764;SDS011;33529;49.242;8.670;2022-10-22T04:24:41;0.47;;;0.38;;
47764;SDS011;33529;49.242;8.670;2022-10-22T04:27:08;0.22;;;0.22;;
47764;SDS011;33529;49.242;8.670;2022-10-22T04:29:34;0.47;;;0.30;;
47764;SDS011;33529;49.242;8.670;2022-10-22T04:32:01;0.20;;;0.20;;
47764;SDS011;33529;49.242;8.670;2022-10-22T04:34:28;0.88;;;0.38;;
47764;SDS011;33529;49.242;8.670;2022-10-22T04:36:55;0.30;;;0.30;;
47764;SDS011;33529;49.242;8.670;2022-10-22T04:39:22;0.30;;;0.20;;
47764;SDS011;33529;49.242;8.670;2022-10-22T04:41:49;1.17;;;0.40;;
47764;SDS011;33529;49.242;8.670;2022-10-22T04:44:15;0.85;;;0.47;;
47764;SDS011;33529;49.242;8.670;2022-10-22T04:46:43;1.30;;;0.30;;
47764;SDS011;33529;49.242;8.670;2022-10-22T04:49:10;0.35;;;0.30;;
47764;SDS011;33529;49.242;8.670;2022-10-22T04:51:37;0.60;;;0.40;;
47764;SDS011;33529;49.242;8.670;2022-10-22T04:54:04;0.28;;;0.25;;
47764;SDS011;33529;49.242;8.670;2022-10-22T04:56:30;0.65;;;0.40;;
47764;SDS011;33529;49.242;8.670;2022-10-22T04:58:59;1.65;;;0.50;;
47764;SDS011;33529;49.242;8.670;2022-10-22T05:01:31;1.15;;;0.30;;
47764;SDS011;33529;49.242;8.670;2022-10-22T05:04:05;1.13;;;0.40;;
47764;SDS011;33529;49.242;8.670;2022-10-22T05:06:34;1.20;;;0.50;;
47764;SDS011;33529;49.242;8.670;2022-10-22T05:09:05;0.77;;;0.30;;
47764;SDS011;33529;49.242;8.670;2022-10-22T05:11:37;0.30;;;0.30;;
47764;SDS011;33529;49.242;8.670;2022-10-22T05:14:07;0.40;;;0.40;;
47764;SDS011;33529;49.242;8.670;2022-10-22T05:16:35;0.60;;;0.50;;
47764;SDS011;33529;49.242;8.670;2022-10-22T05:19:03;0.40;;;0.32;;
47764;SDS011;33529;49.242;8.670;2022-10-22T05:21:31;0.70;;;0.50;;
47764;SDS011;33529;49.242;8.670;2022-10-22T05:23:58;0.75;;;0.55;;
47764;SDS011;33529;49.242;8.670;2022-10-22T05:26:27;1.13;;;0.70;;
47764;SDS011;33529;49.242;8.670;2022-10-22T05:28:54;1.00;;;0.65;;
47764;SDS011;33529;49.242;8.670;2022-10-22T05:31:25;0.68;;;0.47;;
47764;SDS011;33529;49.242;8.670;2022-10-22T05:33:54;0.47;;;0.40;;
47764;SDS011;33529;49.242;8.670;2022-10-22T05:36:21;1.17;;;0.57;;
47764;SDS011;33529;49.242;8.670;2022-10-22T05:38:48;0.98;;;0.60;;
47764;SDS011;33529;49.242;8.670;2022-10-22T05:41:16;0.88;;;0.40;;
47764;SDS011;33529;49.242;8.670;2022-10-22T05:43:44;1.05;;;0.50;;
47764;SDS011;33529;49.242;8.670;2022-10-22T05:46:13;1.20;;;0.60;;
47764;SDS011;33529;49.242;8.670;2022-10-22T05:48:48;1.08;;;0.52;;
47764;SDS011;33529;49.242;8.670;2022-10-22T05:51:16;0.40;;;0.40;;
47764;SDS011;33529;49.242;8.670;2022-10-22T05:53:45;1.33;;;0.50;;
47764;SDS011;33529;49.242;8.670;2022-10-22T05:56:23;0.55;;;0.35;;
47764;SDS011;33529;49.242;8.670;2022-10-22T05:58:51;0.52;;;0.28;;
47764;SDS011;33529;49.242;8.670;2022-10-22T06:01:19;0.47;;;0.30;;
47764;SDS011;33529;49.242;8.670;2022-10-22T06:03:55;0.93;;;0.35;;
47764;SDS011;33529;49.242;8.670;2022-10-22T06:06:30;0.25;;;0.20;;
47764;SDS011;33529;49.242;8.670;2022-10-22T06:09:04;0.22;;;0.20;;
47764;SDS011;33529;49.242;8.670;2022-10-22T06:11:38;0.30;;;0.30;;
47764;SDS011;33529;49.242;8.670;2022-10-22T06:14:05;0.35;;;0.30;;
47764;SDS011;33529;49.242;8.670;2022-10-22T06:16:31;0.52;;;0.45;;
47764;SDS011;33529;49.242;8.670;2022-10-22T06:18:58;0.40;;;0.30;;
47764;SDS011;33529;49.242;8.670;2022-10-22T06:21:29;0.77;;;0.40;;
47764;SDS011;33529;49.242;8.670;2022-10-22T06:23:57;0.75;;;0.60;;
47764;SDS011;33529;49.242;8.670;2022-10-22T06:26:26;0.57;;;0.35;;
47764;SDS011;33529;49.242;8.670;2022-10-22T06:28:54;1.25;;;0.55;;
47764;SDS011;33529;49.242;8.670;2022-10-22T06:31:22;1.25;;;0.52;;
47764;SDS011;33529;49.242;8.670;2022-10-22T06:33:49;1.63;;;0.70;;
47764;SDS011;33529;49.242;8.670;2022-10-22T06:36:18;1.73;;;1.02;;
47764;SDS011;33529;49.242;8.670;2022-10-22T06:38:49;1.33;;;0.88;;
47764;SDS011;33529;49.242;8.670;2022-10-22T06:41:17;0.80;;;0.60;;
47764;SDS011;33529;49.242;8.670;2022-10-22T06:43:44;1.70;;;0.80;;
47764;SDS011;33529;49.242;8.670;2022-10-22T06:46:15;1.33;;;0.73;;
47764;SDS011;33529;49.242;8.670;2022-10-22T06:48:49;1.50;;;0.57;;
47764;SDS011;33529;49.242;8.670;2022-10-22T06:53:44;1.35;;;0.77;;
47764;SDS011;33529;49.242;8.670;2022-10-22T06:56:13;1.35;;;0.60;;
47764;SDS011;33529;49.242;8.670;2022-10-22T06:58:41;0.75;;;0.60;;
47764;SDS011;33529;49.242;8.670;2022-10-22T07:01:09;1.30;;;0.50;;
47764;SDS011;33529;49.242;8.670;2022-10-22T07:03:38;1.20;;;0.63;;
47764;SDS011;33529;49.242;8.670;2022-10-22T07:06:07;0.95;;;0.40;;
47764;SDS011;33529;49.242;8.670;2022-10-22T07:08:36;1.08;;;0.57;;
47764;SDS011;33529;49.242;8.670;2022-10-22T07:11:08;0.95;;;0.50;;
47764;SDS011;33529;49.242;8.670;2022-10-22T07:13:37;0.73;;;0.38;;
47764;SDS011;33529;49.242;8.670;2022-10-22T07:16:05;0.82;;;0.55;;
47764;SDS011;33529;49.242;8.670;2022-10-22T07:18:32;0.57;;;0.40;;
47764;SDS011;33529;49.242;8.670;2022-10-22T07:21:00;0.68;;;0.35;;
47764;SDS011;33529;49.242;8.670;2022-10-22T07:23:28;1.20;;;0.63;;
47764;SDS011;33529;49.242;8.670;2022-10-22T07:25:54;0.50;;;0.40;;
47764;SDS011;33529;49.242;8.670;2022-10-22T07:28:22;0.95;;;0.30;;
47764;SDS011;33529;49.242;8.670;2022-10-22T07:30:49;0.80;;;0.45;;
47764;SDS011;33529;49.242;8.670;2022-10-22T07:33:16;0.65;;;0.30;;
47764;SDS011;33529;49.242;8.670;2022-10-22T07:35:43;0.80;;;0.40;;
47764;SDS011;33529;49.242;8.670;2022-10-22T07:38:10;1.00;;;0.52;;
47764;SDS011;33529;49.242;8.670;2022-10-22T07:40:36;1.00;;;0.43;;
47764;SDS011;33529;49.242;8.670;2022-10-22T07:43:03;0.73;;;0.50;;
47764;SDS011;33529;49.242;8.670;2022-10-22T07:45:31;0.60;;;0.40;;
47764;SDS011;33529;49.242;8.670;2022-10-22T07:47:59;0.52;;;0.38;;
47764;SDS011;33529;49.242;8.670;2022-10-22T07:50:27;1.10;;;0.60;;
47764;SDS011;33529;49.242;8.670;2022-10-22T07:52:54;0.60;;;0.40;;
47764;SDS011;33529;49.242;8.670;2022-10-22T07:55:24;0.98;;;0.47;;
47764;SDS011;33529;49.242;8.670;2022-10-22T07:57:51;0.47;;;0.30;;
47764;SDS011;33529;49.242;8.670;2022-10-22T08:00:18;1.20;;;0.40;;
47764;SDS011;33529;49.242;8.670;2022-10-22T08:02:50;0.60;;;0.50;;
47764;SDS011;33529;49.242;8.670;2022-10-22T08:05:17;0.60;;;0.40;;
47764;SDS011;33529;49.242;8.670;2022-10-22T08:07:44;0.73;;;0.47;;
47764;SDS011;33529;49.242;8.670;2022-10-22T08:10:12;0.38;;;0.38;;
47764;SDS011;33529;49.242;8.670;2022-10-22T08:12:39;0.43;;;0.40;;
47764;SDS011;33529;49.242;8.670;2022-10-22T08:15:06;1.58;;;0.63;;
47764;SDS011;33529;49.242;8.670;2022-10-22T08:17:34;0.38;;;0.32;;
47764;SDS011;33529;49.242;8.670;2022-10-22T08:20:01;0.77;;;0.47;;
47764;SDS011;33529;49.242;8.670;2022-10-22T08:22:28;0.43;;;0.43;;
47764;SDS011;33529;49.242;8.670;2022-10-22T08:24:55;0.50;;;0.32;;
47764;SDS011;33529;49.242;8.670;2022-10-22T08:27:22;1.52;;;0.60;;
47764;SDS011;33529;49.242;8.670;2022-10-22T08:29:49;0.40;;;0.30;;
47764;SDS011;33529;49.242;8.670;2022-10-22T08:32:16;0.55;;;0.40;;
47764;SDS011;33529;49.242;8.670;2022-10-22T08:34:43;0.55;;;0.40;;
47764;SDS011;33529;49.242;8.670;2022-10-22T08:37:09;0.52;;;0.30;;
47764;SDS011;33529;49.242;8.670;2022-10-22T08:39:39;2.13;;;0.75;;
47764;SDS011;33529;49.242;8.670;2022-10-22T08:50:33;0.90;;;0.30;;
47764;SDS011;33529;49.242;8.670;2022-10-22T08:53:05;0.55;;;0.30;;
47764;SDS011;33529;49.242;8.670;2022-10-22T08:55:38;1.05;;;0.65;;
47764;SDS011;33529;49.242;8.670;2022-10-22T09:01:16;0.20;;;0.20;;
47764;SDS011;33529;49.242;8.670;2022-10-22T09:09:04;0.20;;;0.20;;
47764;SDS011;33529;49.242;8.670;2022-10-22T09:11:51;0.40;;;0.20;;
47764;SDS011;33529;49.242;8.670;2022-10-22T09:14:21;1.35;;;0.30;;
47764;SDS011;33529;49.242;8.670;2022-10-22T09:24:45;0.38;;;0.20;;
47764;SDS011;33529;49.242;8.670;2022-10-22T09:27:17;0.20;;;0.20;;
47764;SDS011;33529;49.242;8.670;2022-10-22T09:29:46;0.20;;;0.20;;
47764;SDS011;33529;49.242;8.670;2022-10-22T09:32:14;0.45;;;0.30;;
47764;SDS011;33529;49.242;8.670;2022-10-22T09:34:45;0.28;;;0.20;;
47764;SDS011;33529;49.242;8.670;2022-10-22T09:37:15;0.10;;;0.10;;
47764;SDS011;33529;49.242;8.670;2022-10-22T09:39:45;1.80;;;0.30;;
47764;SDS011;33529;49.242;8.670;2022-10-22T09:42:16;0.45;;;0.28;;
47764;SDS011;33529;49.242;8.670;2022-10-22T09:44:50;0.30;;;0.15;;
47764;SDS011;33529;49.242;8.670;2022-10-22T09:47:39;0.40;;;0.30;;
47764;SDS011;33529;49.242;8.670;2022-10-22T09:50:28;0.70;;;0.63;;
47764;SDS011;33529;49.242;8.670;2022-10-22T09:53:05;0.10;;;0.10;;
47764;SDS011;33529;49.242;8.670;2022-10-22T09:55:48;1.10;;;0.68;;
47764;SDS011;33529;49.242;8.670;2022-10-22T09:58:21;0.20;;;0.20;;
47764;SDS011;33529;49.242;8.670;2022-10-22T10:00:53;0.22;;;0.20;;
47764;SDS011;33529;49.242;8.670;2022-10-22T10:03:23;0.10;;;0.10;;
47764;SDS011;33529;49.242;8.670;2022-10-22T10:05:58;0.43;;;0.38;;
47764;SDS011;33529;49.242;8.670;2022-10-22T10:08:31;0.43;;;0.20;;
47764;SDS011;33529;49.242;8.670;2022-10-22T10:11:01;1.67;;;0.38;;
47764;SDS011;33529;49.242;8.670;2022-10-22T10:16:14;0.63;;;0.28;;
47764;SDS011;33529;49.242;8.670;2022-10-22T10:25:01;0.30;;;0.30;;
47764;SDS011;33529;49.242;8.670;2022-10-22T10:27:50;0.93;;;0.30;;
47764;SDS011;33529;49.242;8.670;2022-10-22T10:30:20;0.20;;;0.20;;
47764;SDS011;33529;49.242;8.670;2022-10-22T10:46:26;0.40;;;0.28;;
47764;SDS011;33529;49.242;8.670;2022-10-22T10:49:25;0.45;;;0.22;;
47764;SDS011;33529;49.242;8.670;2022-10-22T11:00:20;0.40;;;0.30;;
47764;SDS011;33529;49.242;8.670;2022-10-22T11:05:56;0.40;;;0.20;;
47764;SDS011;33529;49.242;8.670;2022-10-22T11:08:27;0.20;;;0.20;;
47764;SDS011;33529;49.242;8.670;2022-10-22T11:13:37;1.05;;;0.40;;
47764;SDS011;33529;49.242;8.670;2022-10-22T11:18:59;0.52;;;0.30;;
47764;SDS011;33529;49.242;8.670;2022-10-22T11:24:25;0.30;;;0.30;;
47764;SDS011;33529;49.242;8.670;2022-10-22T11:29:38;0.35;;;0.30;;
47764;SDS011;33529;49.242;8.670;2022-10-22T11:32:16;0.75;;;0.38;;
47764;SDS011;33529;49.242;8.670;2022-10-22T11:34:49;0.30;;;0.25;;
47764;SDS011;33529;49.242;8.670;2022-10-22T11:37:21;0.28;;;0.28;;
47764;SDS011;33529;49.242;8.670;2022-10-22T11:42:31;0.20;;;0.20;;
47764;SDS011;33529;49.242;8.670;2022-10-22T11:47:31;0.70;;;0.50;;
47764;SDS011;33529;49.242;8.670;2022-10-22T11:50:21;0.73;;;0.30;;
47764;SDS011;33529;49.242;8.670;2022-10-22T11:53:01;0.68;;;0.35;;
47764;SDS011;33529;49.242;8.670;2022-10-22T11:55:31;0.35;;;0.30;;
47764;SDS011;33529;49.242;8.670;2022-10-22T11:57:59;0.80;;;0.40;;
47764;SDS011;33529;49.242;8.670;2022-10-22T12:00:32;0.45;;;0.20;;
47764;SDS011;33529;49.242;8.670;2022-10-22T12:03:15;1.17;;;0.30;;
47764;SDS011;33529;49.242;8.670;2022-10-22T12:06:50;0.35;;;0.20;;
47764;SDS011;33529;49.242;8.670;2022-10-22T12:08:41;0.57;;;0.25;;
47764;SDS011;33529;49.242;8.670;2022-10-22T12:14:18;0.95;;;0.40;;
47764;SDS011;33529;49.242;8.670;2022-10-22T12:16:55;0.77;;;0.32;;
47764;SDS011;33529;49.242;8.670;2022-10-22T12:22:23;0.40;;;0.30;;
47764;SDS011;33529;49.242;8.670;2022-10-22T12:24:59;0.77;;;0.47;;
47764;SDS011;33529;49.242;8.670;2022-10-22T12:27:34;0.52;;;0.30;;
47764;SDS011;33529;49.242;8.670;2022-10-22T12:30:16;0.77;;;0.30;;
47764;SDS011;33529;49.242;8.670;2022-10-22T12:32:47;0.20;;;0.20;;
47764;SDS011;33529;49.242;8.670;2022-10-22T12:37:50;0.63;;;0.38;;
47764;SDS011;33529;49.242;8.670;2022-10-22T12:40:20;0.90;;;0.40;;
47764;SDS011;33529;49.242;8.670;2022-10-22T12:42:54;0.70;;;0.30;;
47764;SDS011;33529;49.242;8.670;2022-10-22T12:45:26;0.50;;;0.30;;
47764;SDS011;33529;49.242;8.670;2022-10-22T12:47:56;1.83;;;0.57;;
47764;SDS011;33529;49.242;8.670;2022-10-22T12:50:40;0.47;;;0.30;;
47764;SDS011;33529;49.242;8.670;2022-10-22T12:53:14;0.82;;;0.30;;
47764;SDS011;33529;49.242;8.670;2022-10-22T12:56:11;0.70;;;0.30;;
47764;SDS011;33529;49.242;8.670;2022-10-22T12:58:59;1.17;;;0.30;;
47764;SDS011;33529;49.242;8.670;2022-10-22T13:01:33;0.82;;;0.35;;
47764;SDS011;33529;49.242;8.670;2022-10-22T13:04:14;0.68;;;0.38;;
47764;SDS011;33529;49.242;8.670;2022-10-22T13:06:49;0.52;;;0.30;;
47764;SDS011;33529;49.242;8.670;2022-10-22T13:09:22;0.65;;;0.30;;
47764;SDS011;33529;49.242;8.670;2022-10-22T13:12:01;0.80;;;0.20;;
47764;SDS011;33529;49.242;8.670;2022-10-22T13:14:31;0.30;;;0.22;;
47764;SDS011;33529;49.242;8.670;2022-10-22T13:19:35;0.47;;;0.38;;
47764;SDS011;33529;49.242;8.670;2022-10-22T13:22:30;1.10;;;0.30;;
47764;SDS011;33529;49.242;8.670;2022-10-22T13:27:46;0.57;;;0.25;;
47764;SDS011;33529;49.242;8.670;2022-10-22T13:30:23;0.43;;;0.30;;
47764;SDS011;33529;49.242;8.670;2022-10-22T13:35:30;0.38;;;0.22;;
47764;SDS011;33529;49.242;8.670;2022-10-22T13:38:00;1.85;;;0.40;;
47764;SDS011;33529;49.242;8.670;2022-10-22T13:40:27;1.15;;;0.55;;
47764;SDS011;33529;49.242;8.670;2022-10-22T13:42:54;0.10;;;0.10;;
47764;SDS011;33529;49.242;8.670;2022-10-22T13:45:21;0.52;;;0.28;;
47764;SDS011;33529;49.242;8.670;2022-10-22T13:47:49;0.47;;;0.30;;
47764;SDS011;33529;49.242;8.670;2022-10-22T13:50:19;0.50;;;0.30;;
47764;SDS011;33529;49.242;8.670;2022-10-22T13:52:50;0.35;;;0.20;;
47764;SDS011;33529;49.242;8.670;2022-10-22T13:55:21;2.30;;;0.38;;
47764;SDS011;33529;49.242;8.670;2022-10-22T13:57:55;0.20;;;0.20;;
47764;SDS011;33529;49.242;8.670;2022-10-22T14:00:23;0.60;;;0.40;;
47764;SDS011;33529;49.242;8.670;2022-10-22T14:02:52;0.95;;;0.40;;
47764;SDS011;33529;49.242;8.670;2022-10-22T14:05:22;0.68;;;0.30;;
47764;SDS011;33529;49.242;8.670;2022-10-22T14:07:49;0.95;;;0.40;;
47764;SDS011;33529;49.242;8.670;2022-10-22T14:10:18;1.10;;;0.30;;
47764;SDS011;33529;49.242;8.670;2022-10-22T14:12:47;1.63;;;0.32;;
47764;SDS011;33529;49.242;8.670;2022-10-22T14:15:22;0.43;;;0.35;;
47764;SDS011;33529;49.242;8.670;2022-10-22T14:17:55;0.60;;;0.40;;
47764;SDS011;33529;49.242;8.670;2022-10-22T14:20:25;0.20;;;0.20;;
47764;SDS011;33529;49.242;8.670;2022-10-22T14:22:57;0.45;;;0.40;;
47764;SDS011;33529;49.242;8.670;2022-10-22T14:25:30;0.40;;;0.20;;
47764;SDS011;33529;49.242;8.670;2022-10-22T14:27:57;0.50;;;0.30;;
47764;SDS011;33529;49.242;8.670;2022-10-22T14:30:25;0.88;;;0.45;;
47764;SDS011;33529;49.242;8.670;2022-10-22T14:32:51;0.40;;;0.30;;
47764;SDS011;33529;49.242;8.670;2022-10-22T14:35:20;0.25;;;0.20;;
47764;SDS011;33529;49.242;8.670;2022-10-22T14:37:47;0.30;;;0.20;;
47764;SDS011;33529;49.242;8.670;2022-10-22T14:40:15;0.40;;;0.20;;
47764;SDS011;33529;49.242;8.670;2022-10-22T14:42:44;0.52;;;0.22;;
47764;SDS011;33529;49.242;8.670;2022-10-22T14:45:17;0.70;;;0.50;;
47764;SDS011;33529;49.242;8.670;2022-10-22T14:47:47;0.40;;;0.30;;
47764;SDS011;33529;49.242;8.670;2022-10-22T14:50:15;0.47;;;0.40;;
47764;SDS011;33529;49.242;8.670;2022-10-22T14:52:43;0.52;;;0.25;;
47764;SDS011;33529;49.242;8.670;2022-10-22T14:55:10;0.98;;;0.40;;
47764;SDS011;33529;49.242;8.670;2022-10-22T14:57:39;1.20;;;0.52;;
47764;SDS011;33529;49.242;8.670;2022-10-22T15:00:11;1.25;;;0.40;;
47764;SDS011;33529;49.242;8.670;2022-10-22T15:02:42;0.88;;;0.30;;
47764;SDS011;33529;49.242;8.670;2022-10-22T15:05:10;0.30;;;0.30;;
47764;SDS011;33529;49.242;8.670;2022-10-22T15:07:37;1.65;;;0.73;;
47764;SDS011;33529;49.242;8.670;2022-10-22T15:10:04;1.83;;;0.40;;
47764;SDS011;33529;49.242;8.670;2022-10-22T15:12:33;0.20;;;0.20;;
47764;SDS011;33529;49.242;8.670;2022-10-22T15:15:00;1.40;;;0.52;;
47764;SDS011;33529;49.242;8.670;2022-10-22T15:17:27;0.70;;;0.40;;
47764;SDS011;33529;49.242;8.670;2022-10-22T15:19:53;1.77;;;0.40;;
47764;SDS011;33529;49.242;8.670;2022-10-22T15:22:21;1.02;;;0.30;;
47764;SDS011;33529;49.242;8.670;2022-10-22T15:24:48;0.20;;;0.20;;
47764;SDS011;33529;49.242;8.670;2022-10-22T15:27:15;1.00;;;0.30;;
47764;SDS011;33529;49.242;8.670;2022-10-22T15:29:42;0.60;;;0.20;;
47764;SDS011;33529;49.242;8.670;2022-10-22T15:32:09;1.13;;;0.35;;
47764;SDS011;33529;49.242;8.670;2022-10-22T15:34:37;0.68;;;0.30;;
47764;SDS011;33529;49.242;8.670;2022-10-22T15:37:06;0.50;;;0.30;;
47764;SDS011;33529;49.242;8.670;2022-10-22T15:39:34;0.45;;;0.30;;
47764;SDS011;33529;49.242;8.670;2022-10-22T15:42:01;0.98;;;0.30;;
47764;SDS011;33529;49.242;8.670;2022-10-22T15:44:28;0.77;;;0.45;;
47764;SDS011;33529;49.242;8.670;2022-10-22T15:46:57;0.70;;;0.52;;
47764;SDS011;33529;49.242;8.670;2022-10-22T15:49:25;0.40;;;0.35;;
47764;SDS011;33529;49.242;8.670;2022-10-22T15:51:53;0.40;;;0.25;;
47764;SDS011;33529;49.242;8.670;2022-10-22T15:54:24;1.13;;;0.70;;
47764;SDS011;33529;49.242;8.670;2022-10-22T15:56:54;0.45;;;0.38;;
47764;SDS011;33529;49.242;8.670;2022-10-22T15:59:22;0.90;;;0.30;;
47764;SDS011;33529;49.242;8.670;2022-10-22T16:01:49;0.38;;;0.28;;
47764;SDS011;33529;49.242;8.670;2022-10-22T16:04:16;0.85;;;0.32;;
47764;SDS011;33529;49.242;8.670;2022-10-22T16:06:44;0.80;;;0.40;;
47764;SDS011;33529;49.242;8.670;2022-10-22T16:09:18;1.63;;;0.50;;
47764;SDS011;33529;49.242;8.670;2022-10-22T16:11:48;0.40;;;0.32;;
47764;SDS011;33529;49.242;8.670;2022-10-22T16:14:16;1.02;;;0.43;;
47764;SDS011;33529;49.242;8.670;2022-10-22T16:16:46;1.30;;;0.50;;
47764;SDS011;33529;49.242;8.670;2022-10-22T16:19:16;0.40;;;0.40;;
47764;SDS011;33529;49.242;8.670;2022-10-22T16:21:44;0.70;;;0.38;;
47764;SDS011;33529;49.242;8.670;2022-10-22T16:24:11;1.98;;;1.05;;
47764;SDS011;33529;49.242;8.670;2022-10-22T16:26:38;0.75;;;0.40;;
47764;SDS011;33529;49.242;8.670;2022-10-22T16:29:05;1.60;;;0.60;;
47764;SDS011;33529;49.242;8.670;2022-10-22T16:31:33;0.90;;;0.40;;
47764;SDS011;33529;49.242;8.670;2022-10-22T16:34:00;1.45;;;0.65;;
47764;SDS011;33529;49.242;8.670;2022-10-22T16:36:27;0.90;;;0.38;;
47764;SDS011;33529;49.242;8.670;2022-10-22T16:38:54;2.20;;;0.90;;
47764;SDS011;33529;49.242;8.670;2022-10-22T16:41:22;1.40;;;0.70;;
47764;SDS011;33529;49.242;8.670;2022-10-22T16:43:51;0.57;;;0.30;;
47764;SDS011;33529;49.242;8.670;2022-10-22T16:46:20;1.13;;;0.50;;
47764;SDS011;33529;49.242;8.670;2022-10-22T16:48:49;1.42;;;0.80;;
47764;SDS011;33529;49.242;8.670;2022-10-22T16:51:18;3.45;;;0.93;;
47764;SDS011;33529;49.242;8.670;2022-10-22T16:53:47;1.48;;;0.80;;
47764;SDS011;33529;49.242;8.670;2022-10-22T16:56:16;2.38;;;0.88;;
47764;SDS011;33529;49.242;8.670;2022-10-22T16:58:47;1.85;;;1.10;;
47764;SDS011;33529;49.242;8.670;2022-10-22T17:01:16;2.45;;;1.52;;
47764;SDS011;33529;49.242;8.670;2022-10-22T17:03:44;1.65;;;0.98;;
47764;SDS011;33529;49.242;8.670;2022-10-22T17:06:11;3.17;;;1.30;;
47764;SDS011;33529;49.242;8.670;2022-10-22T17:08:39;6.00;;;3.90;;
47764;SDS011;33529;49.242;8.670;2022-10-22T17:11:07;9.80;;;6.03;;
47764;SDS011;33529;49.242;8.670;2022-10-22T17:13:39;5.05;;;3.38;;
47764;SDS011;33529;49.242;8.670;2022-10-22T17:16:07;3.92;;;2.22;;